T'aitung, Taiwan
Current Conditions -  °F | °C
As of 8:30 PM on Monday 24 Nov 2014 (Local Time) from RCKH Reporting Station
Scattered Clouds Scattered Clouds  
Wind Chill: 75°   Ceiling: Unl
Heat Index: 75°   Visibility: 6mi
Dew Point: 68°   Wind: 3mph
Humidity: 78%   Direction: 30°NNE
Pressure: 29.97"   Gusts: NA
Location:  22.75°N, 121.15°E
Report Text: RCKH 241230Z 03003KT 9000 FEW014 SCT070 24/20 Q1015 NOSIGRMK A2998
Loading
Personal Weather Stations






























Interactive Weather Map New forecast layout! Learn more

10-Day Weather Forecast

Advertisements
Track Severe Weather on mobile